createdAt,value
2019-01-02T00:00:58.832Z,1.66
2019-01-02T00:06:04.112Z,1.51
2019-01-02T00:11:09.579Z,1.42
2019-01-02T00:16:14.995Z,1.41
2019-01-02T00:21:20.539Z,1.11
2019-01-02T00:26:25.996Z,1.11
2019-01-02T00:31:31.389Z,1.14
2019-01-02T00:36:37.333Z,1.32
2019-01-02T00:41:42.543Z,1.40
2019-01-02T00:46:48.138Z,1.48
2019-01-02T00:51:53.682Z,1.52
2019-01-02T00:56:58.878Z,1.51
2019-01-02T01:02:04.172Z,1.61
2019-01-02T01:07:09.377Z,1.61
2019-01-02T01:12:14.576Z,1.68
2019-01-02T01:17:20.082Z,1.74
2019-01-02T01:22:25.881Z,1.84
2019-01-02T01:27:31.625Z,1.79
2019-01-02T01:32:37.210Z,1.84
2019-01-02T01:37:47.580Z,1.80
2019-01-02T01:42:52.921Z,1.82
2019-01-02T01:47:59.414Z,1.79
2019-01-02T01:53:05.289Z,1.72
2019-01-02T01:58:10.495Z,1.61
2019-01-02T02:03:16.111Z,1.61
2019-01-02T02:08:21.551Z,1.54
2019-01-02T02:13:26.743Z,1.55
2019-01-02T02:18:31.930Z,1.68
2019-01-02T02:23:37.484Z,1.77
2019-01-02T02:28:42.765Z,1.78
2019-01-02T02:33:47.968Z,1.76
2019-01-02T02:38:53.555Z,1.76
2019-01-02T02:43:59.219Z,1.81
2019-01-02T02:49:05.090Z,1.87
2019-01-02T02:54:10.569Z,1.81
2019-01-02T02:59:16.375Z,1.78
2019-01-02T03:04:21.859Z,1.76
2019-01-02T03:09:27.630Z,1.77
2019-01-02T03:14:32.873Z,1.76
2019-01-02T03:19:38.051Z,1.79
2019-01-02T03:24:43.991Z,1.78
2019-01-02T03:29:49.456Z,1.80
2019-01-02T03:34:54.735Z,1.82
2019-01-02T03:40:00.808Z,1.78
2019-01-02T03:45:08.441Z,1.82
2019-01-02T03:50:15.635Z,1.83
2019-01-02T03:55:20.818Z,1.88
2019-01-02T04:00:26.021Z,1.88
2019-01-02T04:05:32.437Z,1.81
2019-01-02T04:10:37.680Z,1.82
2019-01-02T04:15:42.886Z,1.77
2019-01-02T04:20:48.085Z,1.58
2019-01-02T04:25:53.283Z,1.46
2019-01-02T04:30:58.526Z,1.43
2019-01-02T04:36:04.048Z,1.48
2019-01-02T04:41:09.302Z,1.46
2019-01-02T04:46:14.926Z,1.27
2019-01-02T04:51:20.478Z,1.22
2019-01-02T04:56:29.790Z,1.15
2019-01-02T05:01:35.269Z,1.02
2019-01-02T05:06:40.601Z,0.91
2019-01-02T05:11:45.784Z,1.04
2019-01-02T05:16:51.411Z,1.07
2019-01-02T05:21:56.981Z,1.11
2019-01-02T05:27:03.090Z,1.10
2019-01-02T05:32:08.582Z,0.92
2019-01-02T05:37:13.877Z,1.05
2019-01-02T05:42:19.146Z,1.02
2019-01-02T05:47:24.421Z,1.03
2019-01-02T05:52:29.661Z,1.05
2019-01-02T05:57:35.583Z,1.11
2019-01-02T06:02:40.952Z,1.09
2019-01-02T06:07:46.467Z,1.21
2019-01-02T06:12:51.668Z,1.28
2019-01-02T06:17:57.259Z,1.27
2019-01-02T06:23:02.592Z,1.35
2019-01-02T06:28:08.293Z,1.37
2019-01-02T06:33:13.471Z,1.41
2019-01-02T06:38:18.903Z,1.42
2019-01-02T06:43:24.254Z,1.40
2019-01-02T06:48:29.809Z,1.39
2019-01-02T06:53:34.986Z,1.34
2019-01-02T06:58:40.328Z,1.36
2019-01-02T07:03:45.597Z,1.27
2019-01-02T07:08:50.843Z,1.30
2019-01-02T07:13:56.455Z,1.25
2019-01-02T07:19:01.924Z,1.27
2019-01-02T07:24:07.301Z,1.17
2019-01-02T07:29:12.605Z,1.14
2019-01-02T07:34:34.765Z,1.25
2019-01-02T07:40:18.070Z,1.33
2019-01-02T07:45:59.395Z,1.37
2019-01-02T07:51:56.964Z,1.51
2019-01-02T07:57:38.413Z,1.54
2019-01-02T08:03:07.756Z,1.60
2019-01-02T08:09:05.428Z,1.60
2019-01-02T08:15:03.286Z,1.70
2019-01-02T08:21:00.078Z,1.64
2019-01-02T08:26:33.876Z,1.64
2019-01-02T08:32:20.002Z,1.65
2019-01-02T08:37:49.488Z,1.63
2019-01-02T08:43:36.430Z,1.71
2019-01-02T08:48:50.294Z,1.76
2019-01-02T08:54:51.984Z,1.86
2019-01-02T09:00:42.606Z,1.95
2019-01-02T09:06:38.085Z,1.96
2019-01-02T09:12:18.942Z,2.17
2019-01-02T09:17:51.759Z,2.31
2019-01-02T09:23:17.608Z,2.31
2019-01-02T09:29:08.862Z,2.37
2019-01-02T09:34:58.723Z,2.36
2019-01-02T09:40:43.747Z,2.37
2019-01-02T09:46:17.653Z,2.33
2019-01-02T09:52:13.014Z,2.31
2019-01-02T09:57:52.002Z,2.30
2019-01-02T10:03:43.583Z,2.27
2019-01-02T10:09:30.858Z,2.27
2019-01-02T10:15:16.552Z,2.29
2019-01-02T10:20:44.056Z,2.30
2019-01-02T10:26:29.534Z,2.35
2019-01-02T10:32:15.586Z,2.39
2019-01-02T10:37:47.230Z,2.29
2019-01-02T10:43:37.719Z,2.21
2019-01-02T10:49:18.550Z,2.16
2019-01-02T10:54:51.324Z,2.12
2019-01-02T11:00:16.951Z,1.46
2019-01-02T11:06:14.628Z,1.32
2019-01-02T11:12:02.729Z,1.29
2019-01-02T11:18:07.084Z,1.24
2019-01-02T11:23:54.716Z,1.20
2019-01-02T11:29:20.185Z,1.25
2019-01-02T11:34:55.513Z,1.56
2019-01-02T11:40:34.374Z,1.92
2019-01-02T11:45:39.605Z,2.06
2019-01-02T11:50:44.820Z,2.05
2019-01-02T11:55:50.086Z,1.98
2019-01-02T12:00:55.288Z,1.91
2019-01-02T12:06:00.617Z,1.91
2019-01-02T12:11:05.866Z,1.97
2019-01-02T12:16:11.390Z,1.96
2019-01-02T12:21:16.964Z,1.88
2019-01-02T12:26:22.640Z,1.88
2019-01-02T12:31:28.319Z,1.90
2019-01-02T12:36:33.785Z,1.91
2019-01-02T12:41:38.961Z,1.90
2019-01-02T12:46:44.197Z,1.86
2019-01-02T12:51:49.381Z,1.82
2019-01-02T12:56:55.836Z,1.88
2019-01-02T13:02:37.828Z,1.87
2019-01-02T13:08:27.524Z,1.85
2019-01-02T13:14:38.402Z,2.08
2019-01-02T13:20:18.190Z,2.19
2019-01-02T13:25:29.630Z,2.34
2019-01-02T13:31:34.097Z,2.43
2019-01-02T13:37:35.857Z,2.30
2019-01-02T13:42:52.825Z,2.35
2019-01-02T13:48:57.492Z,2.31
2019-01-02T13:54:02.804Z,2.30
2019-01-02T13:59:08.395Z,2.39
2019-01-02T14:04:13.576Z,2.32
2019-01-02T14:09:18.837Z,2.30
2019-01-02T14:14:24.501Z,2.04
2019-01-02T14:19:29.852Z,2.01
2019-01-02T14:24:35.855Z,2.07
2019-01-02T14:29:41.492Z,2.07
2019-01-02T14:34:46.771Z,2.06
2019-01-02T14:39:52.022Z,1.85
2019-01-02T14:44:58.300Z,1.80
2019-01-02T14:50:03.647Z,1.76
2019-01-02T14:55:08.840Z,1.78
2019-01-02T15:00:14.491Z,1.74
2019-01-02T15:05:20.048Z,1.67
2019-01-02T15:10:25.281Z,1.62
2019-01-02T15:15:30.912Z,1.37
2019-01-02T15:20:36.111Z,1.25
2019-01-02T15:25:41.533Z,0.30
2019-01-02T15:30:46.961Z,-0.35
2019-01-02T15:35:52.171Z,-0.46
2019-01-02T15:40:57.811Z,-0.45
2019-01-02T15:46:03.054Z,-0.37
2019-01-02T15:51:08.266Z,-0.26
2019-01-02T15:56:13.785Z,-0.17
2019-01-02T16:01:19.479Z,-0.10
2019-01-02T16:06:25.006Z,-0.05
2019-01-02T16:11:31.011Z,-0.09
2019-01-02T16:16:36.254Z,-0.19
2019-01-02T16:21:41.566Z,-0.34
2019-01-02T16:26:47.893Z,-0.33
2019-01-02T16:31:53.184Z,-0.43
2019-01-02T16:36:59.098Z,-0.38
2019-01-02T16:42:04.293Z,-0.26
2019-01-02T16:47:09.498Z,-0.23
2019-01-02T16:52:14.972Z,-0.07
2019-01-02T16:57:20.153Z,-0.07
2019-01-02T17:02:25.430Z,0.11
2019-01-02T17:07:30.596Z,0.14
2019-01-02T17:12:36.170Z,0.39
2019-01-02T17:17:41.380Z,0.44
2019-01-02T17:22:46.558Z,0.49
2019-01-02T17:27:51.733Z,0.55
2019-01-02T17:32:56.915Z,0.56
2019-01-02T17:38:02.103Z,0.60
2019-01-02T17:43:07.664Z,0.61
2019-01-02T17:48:13.281Z,0.52
2019-01-02T17:53:19.077Z,0.54
2019-01-02T17:58:24.341Z,0.53
2019-01-02T18:03:29.518Z,0.60
2019-01-02T18:08:34.765Z,0.60
2019-01-02T18:13:39.993Z,0.61
2019-01-02T18:18:45.331Z,0.58
2019-01-02T18:23:51.672Z,0.60
2019-01-02T18:28:57.216Z,0.59
2019-01-02T18:34:02.742Z,0.56
2019-01-02T18:39:09.850Z,0.55
2019-01-02T18:44:20.427Z,0.59
2019-01-02T18:49:22.017Z,0.59
2019-01-02T18:54:27.290Z,0.51
2019-01-02T18:59:32.692Z,0.43
2019-01-02T19:04:39.162Z,0.43
2019-01-02T19:09:45.884Z,0.44
2019-01-02T19:14:52.081Z,0.47
2019-01-02T19:19:57.374Z,0.49
2019-01-02T19:25:02.846Z,0.40
2019-01-02T19:30:11.096Z,0.51
2019-01-02T19:35:16.432Z,0.56
2019-01-02T19:40:21.861Z,0.50
2019-01-02T19:45:27.472Z,0.52
2019-01-02T19:50:32.699Z,0.50
2019-01-02T19:55:38.261Z,0.33
2019-01-02T20:00:45.002Z,0.27
2019-01-02T20:05:51.317Z,0.23
2019-01-02T20:10:57.387Z,0.16
2019-01-02T20:16:02.747Z,0.11
2019-01-02T20:21:08.019Z,0.29
2019-01-02T20:26:14.036Z,0.26
2019-01-02T20:31:20.389Z,0.28
2019-01-02T20:36:26.647Z,0.16
2019-01-02T20:46:36.121Z,0.11
2019-01-02T20:51:41.431Z,0.19
2019-01-02T20:56:48.382Z,0.19
2019-01-02T21:01:53.862Z,0.19
2019-01-02T21:07:00.167Z,0.20
2019-01-02T21:12:05.449Z,0.17
2019-01-02T21:17:10.947Z,0.21
2019-01-02T21:22:17.007Z,0.18
2019-01-02T21:27:22.473Z,0.14
2019-01-02T21:32:28.336Z,0.12
2019-01-02T21:37:33.507Z,0.22
2019-01-02T21:42:39.454Z,0.27
2019-01-02T21:47:44.750Z,0.27
2019-01-02T21:52:49.932Z,0.25
2019-01-02T21:57:55.568Z,0.18
2019-01-02T22:03:01.200Z,0.22
2019-01-02T22:08:06.377Z,0.15
2019-01-02T22:13:11.951Z,0.09
2019-01-02T22:18:18.093Z,0.06
2019-01-02T22:23:23.273Z,0.07
2019-01-02T22:28:28.457Z,-0.04
2019-01-02T22:33:33.841Z,-0.09
2019-01-02T22:38:39.634Z,0.03
2019-01-02T22:43:44.829Z,-0.03
2019-01-02T22:48:50.142Z,-0.08
2019-01-02T22:53:55.357Z,-0.19
2019-01-02T22:59:00.586Z,-0.19
2019-01-02T23:04:41.105Z,-0.15
2019-01-02T23:10:04.216Z,-0.26
2019-01-02T23:15:34.577Z,-0.21
2019-01-02T23:20:57.701Z,-0.22
2019-01-02T23:26:27.329Z,-0.29
2019-01-02T23:31:51.184Z,-0.34
2019-01-02T23:37:15.654Z,-0.32
2019-01-02T23:42:45.883Z,-0.36
2019-01-02T23:48:17.332Z,-0.49
2019-01-02T23:53:54.401Z,-0.49
2019-01-02T23:59:30.521Z,-0.47
